Cape Hatteras Naval Facility, North Carolina
Current Conditions -  °F | °C
As of 8:51 PM on Wednesday 22 Oct 2014 (Local Time) from KHSE Reporting Station
Overcast Overcast  
Wind Chill: 14°   Ceiling: 2600
Heat Index: 14°   Visibility: 10mi
Dew Point: 11°   Wind: 17mph
Humidity: 78%   Direction: 320°NW
Pressure: 29.89"   Gusts: 28mph
Location:  35.2677°N, 75.5426°W
Report Text: KHSE 230051Z AUTO 32015G24KT 10SM BKN026 OVC032 14/11 A2989 RMK AO2 PK WND 32029/2357 SLP121 T01440106 TSNO
Loading
Personal Weather Stations






























Interactive Weather Map
Tropical Storm Tracking
New forecast layout! Learn more

10-Day Weather Forecast

Advertisements
Track Severe Weather on mobile